createdAt,value
2023-03-02T00:01:50.269Z,101987.94
2023-03-02T00:04:27.567Z,101984.64
2023-03-02T00:07:00.461Z,101980.48
2023-03-02T00:09:30.313Z,101981.60
2023-03-02T00:11:58.876Z,101979.16
2023-03-02T00:14:27.124Z,101982.36
2023-03-02T00:16:55.421Z,101980.93
2023-03-02T00:19:23.664Z,101985.35
2023-03-02T00:21:52.008Z,101983.29
2023-03-02T00:24:20.125Z,101980.72
2023-03-02T00:26:48.308Z,101982.74
2023-03-02T00:29:16.418Z,101984.63
2023-03-02T00:31:44.740Z,101988.08
2023-03-02T00:34:13.201Z,101987.40
2023-03-02T00:36:41.542Z,101987.23
2023-03-02T00:39:09.816Z,101985.86
2023-03-02T00:41:38.556Z,101984.14
2023-03-02T00:44:06.883Z,101983.59
2023-03-02T00:46:35.503Z,101979.44
2023-03-02T00:49:04.465Z,101977.15
2023-03-02T00:51:33.342Z,101977.11
2023-03-02T00:54:03.079Z,101974.67
2023-03-02T00:56:31.742Z,101971.73
2023-03-02T00:59:05.964Z,101971.58
2023-03-02T01:01:34.413Z,101968.98
2023-03-02T01:04:02.914Z,101968.27
2023-03-02T01:06:31.264Z,101961.20
2023-03-02T01:08:59.881Z,101955.16
2023-03-02T01:11:27.960Z,101956.84
2023-03-02T01:13:56.012Z,101958.51
2023-03-02T01:16:24.420Z,101954.05
2023-03-02T01:18:52.480Z,101958.19
2023-03-02T01:21:20.549Z,101959.42
2023-03-02T01:23:48.865Z,101960.64
2023-03-02T01:26:17.046Z,101957.92
2023-03-02T01:28:45.191Z,101955.67
2023-03-02T01:31:14.528Z,101959.78
2023-03-02T01:33:42.619Z,101963.02
2023-03-02T01:36:10.661Z,101965.68
2023-03-02T01:38:39.136Z,101959.55
2023-03-02T01:41:07.523Z,101959.01
2023-03-02T01:43:35.572Z,101954.74
2023-03-02T01:46:16.872Z,101953.31
2023-03-02T01:49:05.764Z,101949.06
2023-03-02T01:51:54.955Z,101947.36
2023-03-02T01:54:23.960Z,101942.73
2023-03-02T01:56:58.664Z,101941.91
2023-03-02T01:59:29.084Z,101943.79
2023-03-02T02:02:00.327Z,101942.05
2023-03-02T02:04:31.377Z,101945.64
2023-03-02T02:07:05.693Z,101942.52
2023-03-02T02:09:39.811Z,101943.23
2023-03-02T02:12:20.629Z,101945.71
2023-03-02T02:14:49.986Z,101940.65
2023-03-02T02:17:19.386Z,101934.23
2023-03-02T02:20:00.911Z,101933.05
2023-03-02T02:22:38.076Z,101928.93
2023-03-02T02:25:30.997Z,101928.36
2023-03-02T02:27:59.617Z,101931.06
2023-03-02T02:30:28.380Z,101929.39
2023-03-02T02:32:58.595Z,101931.27
2023-03-02T02:35:30.287Z,101930.41
2023-03-02T02:38:04.608Z,101932.83
2023-03-02T02:40:51.035Z,101933.50
2023-03-02T02:43:22.655Z,101933.27
2023-03-02T02:45:56.796Z,101934.41
2023-03-02T02:48:31.330Z,101929.77
2023-03-02T02:51:00.834Z,101927.20
2023-03-02T02:53:47.688Z,101925.58
2023-03-02T02:56:17.563Z,101925.27
2023-03-02T02:58:49.782Z,101921.02
2023-03-02T03:01:25.505Z,101919.98
2023-03-02T03:03:58.026Z,101916.92
2023-03-02T03:06:42.532Z,101922.27
2023-03-02T03:09:12.292Z,101921.19
2023-03-02T03:11:55.675Z,101915.63
2023-03-02T03:14:35.746Z,101921.09
2023-03-02T03:17:04.047Z,101912.26
2023-03-02T03:19:33.296Z,101910.45
2023-03-02T03:22:02.585Z,101911.77
2023-03-02T03:24:35.297Z,101907.11
2023-03-02T03:27:05.811Z,101909.23
2023-03-02T03:29:38.225Z,101906.52
2023-03-02T03:32:08.432Z,101906.55
2023-03-02T03:34:40.981Z,101907.23
2023-03-02T03:37:18.166Z,101907.58
2023-03-02T03:39:47.494Z,101907.27
2023-03-02T03:42:16.155Z,101904.36
2023-03-02T03:44:45.393Z,101904.87
2023-03-02T03:47:13.997Z,101903.33
2023-03-02T03:49:42.766Z,101902.48
2023-03-02T03:52:10.976Z,101899.21
2023-03-02T03:54:39.433Z,101897.83
2023-03-02T03:57:08.272Z,101895.55
2023-03-02T03:59:36.461Z,101890.45
2023-03-02T04:02:05.324Z,101886.50
2023-03-02T04:04:37.857Z,101886.34
2023-03-02T04:07:16.118Z,101877.14
2023-03-02T04:09:45.342Z,101874.77
2023-03-02T04:12:15.107Z,101873.97
2023-03-02T04:14:51.688Z,101872.05
2023-03-02T04:17:20.011Z,101871.88
2023-03-02T04:19:50.236Z,101869.52
2023-03-02T04:22:20.185Z,101868.17
2023-03-02T04:24:49.844Z,101868.64
2023-03-02T04:27:19.222Z,101867.42
2023-03-02T04:29:48.484Z,101874.63
2023-03-02T04:32:17.067Z,101874.63
2023-03-02T04:34:48.663Z,101867.76
2023-03-02T04:37:16.853Z,101868.56
2023-03-02T04:39:47.498Z,101871.63
2023-03-02T04:42:15.741Z,101871.46
2023-03-02T04:44:44.492Z,101867.89
2023-03-02T04:47:12.650Z,101865.82
2023-03-02T04:49:41.527Z,101862.55
2023-03-02T04:52:10.048Z,101862.54
2023-03-02T04:54:38.157Z,101862.56
2023-03-02T04:57:08.505Z,101861.35
2023-03-02T04:59:37.058Z,101859.23
2023-03-02T05:02:05.654Z,101864.14
2023-03-02T05:04:34.213Z,101864.12
2023-03-02T05:07:02.387Z,101862.40
2023-03-02T05:09:31.062Z,101862.42
2023-03-02T05:12:01.003Z,101860.33
2023-03-02T05:14:29.516Z,101858.45
2023-03-02T05:16:58.268Z,101856.72
2023-03-02T05:19:26.813Z,101856.23
2023-03-02T05:21:56.511Z,101856.77
2023-03-02T05:24:25.086Z,101852.00
2023-03-02T05:26:53.313Z,101852.09
2023-03-02T05:29:21.605Z,101851.14
2023-03-02T05:31:50.119Z,101847.70
2023-03-02T05:34:18.642Z,101848.09
2023-03-02T05:36:46.911Z,101846.77
2023-03-02T05:39:14.992Z,101847.52
2023-03-02T05:41:43.423Z,101849.80
2023-03-02T05:44:12.701Z,101850.33
2023-03-02T05:46:41.638Z,101850.05
2023-03-02T05:49:10.787Z,101850.58
2023-03-02T05:51:38.940Z,101856.39
2023-03-02T05:54:07.132Z,101855.10
2023-03-02T05:56:35.710Z,101854.03
2023-03-02T05:59:04.160Z,101851.59
2023-03-02T06:01:32.515Z,101851.22
2023-03-02T06:04:01.163Z,101850.20
2023-03-02T06:06:29.256Z,101851.56
2023-03-02T06:08:57.340Z,101850.38
2023-03-02T06:11:25.926Z,101848.33
2023-03-02T06:13:54.143Z,101848.17
2023-03-02T06:16:22.278Z,101849.06
2023-03-02T06:18:50.492Z,101847.12
2023-03-02T06:21:18.648Z,101848.53
2023-03-02T06:23:46.825Z,101851.45
2023-03-02T06:26:15.090Z,101851.80
2023-03-02T06:28:51.971Z,101852.36
2023-03-02T06:31:21.909Z,101851.92
2023-03-02T06:33:50.176Z,101856.95
2023-03-02T06:36:18.722Z,101859.06
2023-03-02T06:38:47.015Z,101858.27
2023-03-02T06:41:15.963Z,101861.03
2023-03-02T06:43:44.637Z,101857.63
2023-03-02T06:46:12.943Z,101861.14
2023-03-02T06:48:41.417Z,101857.58
2023-03-02T06:51:09.619Z,101858.64
2023-03-02T06:53:38.239Z,101858.02
2023-03-02T06:56:07.332Z,101857.92
2023-03-02T06:58:36.425Z,101856.59
2023-03-02T07:01:05.023Z,101859.56
2023-03-02T07:03:33.699Z,101858.91
2023-03-02T07:06:02.689Z,101858.92
2023-03-02T07:08:31.349Z,101859.63
2023-03-02T07:10:59.575Z,101857.98
2023-03-02T07:13:27.708Z,101857.52
2023-03-02T07:15:55.991Z,101857.73
2023-03-02T07:18:24.072Z,101854.14
2023-03-02T07:20:52.422Z,101855.03
2023-03-02T07:23:20.751Z,101848.19
2023-03-02T07:25:49.023Z,101849.81
2023-03-02T07:28:17.150Z,101849.35
2023-03-02T07:30:45.565Z,101849.74
2023-03-02T07:33:13.684Z,101853.77
2023-03-02T07:35:41.903Z,101851.45
2023-03-02T07:38:10.219Z,101852.70
2023-03-02T07:40:42.453Z,101848.30
2023-03-02T07:43:10.701Z,101849.05
2023-03-02T07:45:39.229Z,101850.80
2023-03-02T07:48:07.609Z,101848.62
2023-03-02T07:50:36.041Z,101851.27
2023-03-02T07:53:04.342Z,101854.23
2023-03-02T07:55:32.769Z,101854.79
2023-03-02T07:58:00.815Z,101855.52
2023-03-02T08:00:29.142Z,101853.00
2023-03-02T08:02:57.457Z,101850.33
2023-03-02T08:05:25.560Z,101846.28
2023-03-02T08:07:53.938Z,101849.24
2023-03-02T08:10:23.143Z,101847.92
2023-03-02T08:12:52.354Z,101846.36
2023-03-02T08:15:20.903Z,101843.63
2023-03-02T08:17:49.268Z,101844.39
2023-03-02T08:20:17.338Z,101844.08
2023-03-02T08:22:45.557Z,101843.27
2023-03-02T08:25:13.670Z,101844.55
2023-03-02T08:27:41.732Z,101844.84
2023-03-02T08:30:10.875Z,101842.35
2023-03-02T08:32:39.772Z,101837.25
2023-03-02T08:35:08.388Z,101837.81
2023-03-02T08:37:37.658Z,101839.07
2023-03-02T08:40:06.599Z,101839.13
2023-03-02T08:42:34.661Z,101837.46
2023-03-02T08:45:02.844Z,101836.58
2023-03-02T08:47:31.167Z,101835.16
2023-03-02T08:49:59.321Z,101840.17
2023-03-02T08:52:27.597Z,101840.25
2023-03-02T08:54:55.763Z,101840.84
2023-03-02T08:57:23.920Z,101843.66
2023-03-02T08:59:52.817Z,101839.60
2023-03-02T09:02:21.422Z,101840.71
2023-03-02T09:04:49.618Z,101843.39
2023-03-02T09:07:18.103Z,101844.34
2023-03-02T09:09:46.339Z,101840.82
2023-03-02T09:12:14.485Z,101836.94
2023-03-02T09:14:42.894Z,101834.98
2023-03-02T09:54:49.198Z,101817.55
2023-03-02T09:57:28.537Z,101815.98
2023-03-02T10:00:06.811Z,101814.77
2023-03-02T10:02:53.613Z,101811.15
2023-03-02T10:05:28.816Z,101814.11
2023-03-02T10:07:57.837Z,101811.70
2023-03-02T10:10:36.398Z,101809.66
2023-03-02T10:13:21.897Z,101810.76
2023-03-02T10:16:02.389Z,101812.23
2023-03-02T10:18:39.937Z,101811.61
2023-03-02T10:21:21.008Z,101815.12
2023-03-02T10:24:23.610Z,101810.30
2023-03-02T10:26:54.022Z,101808.61
2023-03-02T10:29:46.538Z,101808.80
2023-03-02T10:32:22.241Z,101809.02
2023-03-02T10:34:53.381Z,101806.13
2023-03-02T10:37:24.760Z,101807.18
2023-03-02T10:39:52.124Z,101810.49
2023-03-02T10:42:25.338Z,101803.60
2023-03-02T10:44:55.376Z,101812.80
2023-03-02T10:47:26.274Z,101813.18
2023-03-02T10:49:55.550Z,101810.27
2023-03-02T10:52:27.911Z,101811.18
2023-03-02T10:55:06.805Z,101808.96
2023-03-02T10:57:39.388Z,101806.24
2023-03-02T11:00:17.486Z,101804.36
2023-03-02T11:02:54.881Z,101804.23
2023-03-02T11:05:39.581Z,101801.65
2023-03-02T11:08:17.241Z,101798.05
2023-03-02T11:11:00.979Z,101801.38
2023-03-02T11:13:36.918Z,101801.38
2023-03-02T11:16:24.462Z,101797.08
2023-03-02T11:18:53.741Z,101793.98
2023-03-02T11:21:32.686Z,101794.33
2023-03-02T11:24:16.446Z,101794.67
2023-03-02T11:26:53.845Z,101789.14
2023-03-02T11:34:16.763Z,101783.62
2023-03-02T11:36:57.370Z,101777.73
2023-03-02T11:39:54.974Z,101777.39
2023-03-02T11:42:43.596Z,101773.92
2023-03-02T11:45:13.294Z,101771.33
2023-03-02T11:48:02.202Z,101768.73
2023-03-02T11:50:33.822Z,101766.80
2023-03-02T11:53:06.302Z,101760.05
2023-03-02T11:55:38.785Z,101754.48
2023-03-02T11:58:06.647Z,101754.83
2023-03-02T12:00:37.047Z,101754.31
2023-03-02T12:03:45.024Z,101752.55
2023-03-02T12:06:18.076Z,101749.61
2023-03-02T12:08:47.263Z,101743.05
2023-03-02T12:11:16.795Z,101740.95
2023-03-02T12:13:57.039Z,101743.39
2023-03-02T12:16:41.345Z,101743.73
2023-03-02T12:19:11.473Z,101741.81
2023-03-02T12:21:41.698Z,101736.26
2023-03-02T12:24:24.811Z,101730.91
2023-03-02T12:27:05.758Z,101731.08
2023-03-02T12:29:54.998Z,101726.74
2023-03-02T12:32:30.403Z,101729.51
2023-03-02T12:35:08.917Z,101725.02
2023-03-02T12:37:52.667Z,101719.30
2023-03-02T12:40:32.134Z,101723.30
2023-03-02T12:42:59.564Z,101715.49
2023-03-02T12:45:38.500Z,101707.52
2023-03-02T12:48:27.658Z,101703.00
2023-03-02T12:51:03.276Z,101702.29
2023-03-02T12:53:30.968Z,101705.89
2023-03-02T12:55:57.777Z,101706.01
2023-03-02T12:58:29.180Z,101698.67
2023-03-02T13:01:01.844Z,101703.98
2023-03-02T13:03:30.725Z,101698.52
2023-03-02T13:06:12.819Z,101695.32
2023-03-02T13:08:44.191Z,101695.05
2023-03-02T13:11:11.675Z,101693.04
2023-03-02T13:13:44.533Z,101688.45
2023-03-02T13:16:23.905Z,101681.83
2023-03-02T13:18:56.546Z,101682.30
2023-03-02T13:21:31.996Z,101684.12
2023-03-02T13:23:59.827Z,101686.99
2023-03-02T13:26:34.525Z,101673.40
2023-03-02T13:29:14.057Z,101666.61
2023-03-02T13:31:41.890Z,101665.20
2023-03-02T13:34:32.161Z,101664.52
2023-03-02T13:36:59.262Z,101663.49
2023-03-02T13:39:29.956Z,101660.86
2023-03-02T13:42:02.318Z,101660.32
2023-03-02T13:44:31.842Z,101646.68
2023-03-02T13:46:59.899Z,101646.22
2023-03-02T13:49:27.237Z,101657.27
2023-03-02T13:52:13.499Z,101659.34
2023-03-02T13:54:43.471Z,101652.77
2023-03-02T13:57:21.168Z,101648.08
2023-03-02T13:59:48.502Z,101641.55
2023-03-02T14:02:28.250Z,101638.00
2023-03-02T14:04:56.507Z,101637.67
2023-03-02T14:07:23.611Z,101634.25
2023-03-02T14:09:50.526Z,101634.02
2023-03-02T14:12:30.909Z,101631.38
2023-03-02T14:15:01.325Z,101631.08
2023-03-02T14:17:28.226Z,101625.06
2023-03-02T14:19:55.925Z,101622.16
2023-03-02T14:22:25.795Z,101625.80
2023-03-02T14:24:53.084Z,101622.27
2023-03-02T14:27:20.239Z,101617.98
2023-03-02T14:29:47.267Z,101611.92
2023-03-02T14:32:14.891Z,101608.45
2023-03-02T14:34:41.948Z,101604.17
2023-03-02T14:37:20.121Z,101602.61
2023-03-02T14:39:54.120Z,101598.53
2023-03-02T14:42:22.671Z,101594.10
2023-03-02T14:44:50.861Z,101593.07
2023-03-02T14:47:19.089Z,101594.21
2023-03-02T14:49:48.112Z,101591.45
2023-03-02T14:52:22.822Z,101590.66
2023-03-02T14:54:59.035Z,101588.23
2023-03-02T14:57:28.805Z,101590.55
2023-03-02T14:59:59.109Z,101596.33
2023-03-02T15:02:27.180Z,101597.40
2023-03-02T15:04:56.638Z,101594.74
2023-03-02T15:07:25.984Z,101589.18
2023-03-02T15:09:54.528Z,101579.77
2023-03-02T15:12:21.438Z,101584.20
2023-03-02T15:14:48.521Z,101583.04
2023-03-02T15:17:15.238Z,101577.13
2023-03-02T15:19:42.378Z,101576.37
2023-03-02T15:22:10.756Z,101578.37
2023-03-02T15:24:37.491Z,101587.55
2023-03-02T15:27:04.329Z,101586.20
2023-03-02T15:29:31.485Z,101575.77
2023-03-02T15:31:58.348Z,101572.94
2023-03-02T15:34:25.377Z,101571.96
2023-03-02T15:36:52.258Z,101567.48
2023-03-02T15:39:19.111Z,101561.61
2023-03-02T15:41:45.922Z,101559.05
2023-03-02T15:44:22.630Z,101559.06
2023-03-02T15:46:54.519Z,101552.91
2023-03-02T15:49:26.616Z,101552.29
2023-03-02T15:51:57.339Z,101553.71
2023-03-02T15:54:25.563Z,101557.91
2023-03-02T15:56:52.996Z,101556.58
2023-03-02T15:59:24.939Z,101556.95
2023-03-02T16:01:52.310Z,101554.52
2023-03-02T16:04:19.671Z,101548.80
2023-03-02T16:06:47.022Z,101549.46
2023-03-02T16:09:14.768Z,101544.75
2023-03-02T16:11:41.773Z,101549.36
2023-03-02T16:14:09.476Z,101548.80
2023-03-02T16:16:37.502Z,101547.17
2023-03-02T16:19:04.563Z,101551.05
2023-03-02T16:21:31.613Z,101554.61
2023-03-02T16:24:03.529Z,101551.58
2023-03-02T16:26:33.178Z,101552.64
2023-03-02T16:29:00.408Z,101549.91
2023-03-02T16:31:31.576Z,101552.71
2023-03-02T16:34:03.174Z,101551.73
2023-03-02T16:36:30.112Z,101547.48
2023-03-02T16:38:56.819Z,101545.79
2023-03-02T16:41:23.872Z,101543.77
2023-03-02T16:43:53.595Z,101538.56
2023-03-02T16:46:22.448Z,101537.32
2023-03-02T16:48:50.356Z,101538.14
2023-03-02T16:51:19.462Z,101540.30
2023-03-02T16:53:46.536Z,101536.41
2023-03-02T16:56:14.771Z,101539.60
2023-03-02T16:58:42.460Z,101540.42
2023-03-02T17:01:15.769Z,101548.46
2023-03-02T17:03:43.143Z,101542.50
2023-03-02T17:06:11.974Z,101542.27
2023-03-02T17:08:39.232Z,101549.09
2023-03-02T17:11:06.592Z,101541.78
2023-03-02T17:13:33.615Z,101539.64
2023-03-02T17:16:00.778Z,101536.45
2023-03-02T17:18:28.733Z,101531.55
2023-03-02T17:20:58.453Z,101534.41
2023-03-02T17:23:26.928Z,101537.83
2023-03-02T17:25:55.548Z,101537.46
2023-03-02T17:28:23.168Z,101536.37
2023-03-02T17:30:50.411Z,101539.26
2023-03-02T17:33:17.770Z,101537.48
2023-03-02T17:35:45.656Z,101541.55
2023-03-02T17:38:14.240Z,101536.02
2023-03-02T17:40:41.971Z,101539.11
2023-03-02T17:43:09.063Z,101541.14
2023-03-02T17:45:35.855Z,101538.72
2023-03-02T17:48:02.928Z,101530.98
2023-03-02T17:50:33.166Z,101537.15
2023-03-02T17:52:59.975Z,101530.76
2023-03-02T17:55:27.293Z,101530.70
2023-03-02T17:57:54.088Z,101535.50
2023-03-02T18:00:22.445Z,101535.45
2023-03-02T18:02:50.884Z,101533.73
2023-03-02T18:05:18.107Z,101536.48
2023-03-02T18:07:44.801Z,101531.49
2023-03-02T18:10:12.074Z,101528.69
2023-03-02T18:12:39.550Z,101526.94
2023-03-02T18:15:07.291Z,101525.03
2023-03-02T18:17:34.046Z,101524.14
2023-03-02T18:20:00.743Z,101520.70
2023-03-02T18:22:28.026Z,101516.05
2023-03-02T18:24:55.102Z,101517.09
2023-03-02T18:27:21.894Z,101518.98
2023-03-02T18:29:48.776Z,101516.20
2023-03-02T18:32:15.827Z,101517.02
2023-03-02T18:34:42.541Z,101513.38
2023-03-02T18:37:09.242Z,101515.23
2023-03-02T18:39:37.292Z,101515.20
2023-03-02T18:42:05.550Z,101516.92
2023-03-02T18:44:33.317Z,101517.25
2023-03-02T18:47:01.501Z,101514.81
2023-03-02T18:49:29.092Z,101515.00
2023-03-02T18:51:56.790Z,101515.20
2023-03-02T18:54:24.183Z,101517.77
2023-03-02T18:56:51.124Z,101523.05
2023-03-02T18:59:18.423Z,101516.52
2023-03-02T19:01:45.530Z,101521.01
2023-03-02T19:04:13.689Z,101514.30
2023-03-02T19:06:41.760Z,101508.29
2023-03-02T19:09:09.133Z,101507.42
2023-03-02T19:11:35.967Z,101503.97
2023-03-02T19:14:03.129Z,101499.34
2023-03-02T19:16:30.120Z,101494.38
2023-03-02T19:18:57.033Z,101482.86
2023-03-02T19:21:23.819Z,101483.71
2023-03-02T19:23:50.785Z,101483.72
2023-03-02T19:26:17.656Z,101487.73
2023-03-02T19:28:44.885Z,101481.58
2023-03-02T19:31:12.992Z,101485.35
2023-03-02T19:33:41.670Z,101479.72
2023-03-02T19:36:09.026Z,101481.24
2023-03-02T19:38:40.045Z,101482.21
2023-03-02T19:41:08.649Z,101481.32
2023-03-02T19:43:35.968Z,101474.84
2023-03-02T19:46:04.308Z,101469.90
2023-03-02T19:48:33.328Z,101472.13
2023-03-02T19:51:00.595Z,101466.40
2023-03-02T19:53:27.833Z,101464.34
2023-03-02T19:56:03.409Z,101459.03
2023-03-02T19:58:32.539Z,101464.14
2023-03-02T20:00:59.389Z,101463.79
2023-03-02T20:03:26.528Z,101461.90
2023-03-02T20:05:55.363Z,101458.46
2023-03-02T20:08:22.147Z,101457.54
2023-03-02T20:10:49.674Z,101461.06
2023-03-02T20:13:17.023Z,101454.67
2023-03-02T20:15:46.418Z,101452.57
2023-03-02T20:18:19.435Z,101454.91
2023-03-02T20:20:47.755Z,101453.70
2023-03-02T20:23:15.586Z,101452.44
2023-03-02T20:25:42.816Z,101443.83
2023-03-02T20:28:13.381Z,101439.48
2023-03-02T20:30:47.367Z,101440.66
2023-03-02T20:33:15.640Z,101444.09
2023-03-02T20:35:44.280Z,101444.54
2023-03-02T20:38:17.387Z,101452.89
2023-03-02T20:40:45.261Z,101450.59
2023-03-02T20:43:12.459Z,101456.65
2023-03-02T20:45:39.810Z,101465.06
2023-03-02T20:48:06.906Z,101449.88
2023-03-02T20:50:35.507Z,101450.19
2023-03-02T20:53:03.452Z,101450.50
2023-03-02T20:55:30.998Z,101446.60
2023-03-02T20:57:59.425Z,101439.36
2023-03-02T21:00:29.933Z,101443.64
2023-03-02T21:02:57.553Z,101450.45
2023-03-02T21:05:26.377Z,101444.67
2023-03-02T21:07:54.452Z,101450.95
2023-03-02T21:10:25.779Z,101453.25
2023-03-02T21:12:53.531Z,101452.58
2023-03-02T21:15:23.519Z,101454.79
2023-03-02T21:17:54.017Z,101458.66
2023-03-02T21:20:25.968Z,101448.45
2023-03-02T21:22:52.712Z,101448.56
2023-03-02T21:25:19.753Z,101436.02
2023-03-02T21:27:47.311Z,101422.81
2023-03-02T21:30:23.129Z,101412.60
2023-03-02T21:32:50.330Z,101415.20
2023-03-02T21:35:22.784Z,101406.50
2023-03-02T21:37:50.304Z,101403.40
2023-03-02T21:40:21.308Z,101393.59
2023-03-02T21:42:48.773Z,101389.25
2023-03-02T21:45:15.706Z,101392.00
2023-03-02T21:47:42.617Z,101393.05
2023-03-02T21:50:13.364Z,101388.89
2023-03-02T21:52:40.058Z,101388.89
2023-03-02T21:55:08.191Z,101387.69
2023-03-02T21:57:35.067Z,101390.63
2023-03-02T22:00:04.066Z,101392.17
2023-03-02T22:02:31.927Z,101387.86
2023-03-02T22:04:58.756Z,101385.77
2023-03-02T22:07:25.423Z,101388.09
2023-03-02T22:09:52.349Z,101382.09
2023-03-02T22:12:21.862Z,101374.34
2023-03-02T22:14:48.671Z,101371.23
2023-03-02T22:17:21.483Z,101363.01
2023-03-02T22:19:50.484Z,101365.21
2023-03-02T22:22:29.906Z,101374.27
2023-03-02T22:24:57.020Z,101357.90
2023-03-02T22:27:30.784Z,101349.28
2023-03-02T22:29:59.610Z,101347.52
2023-03-02T22:32:29.591Z,101343.30
2023-03-02T22:34:59.120Z,101337.73
2023-03-02T22:37:34.019Z,101340.71
2023-03-02T22:40:17.502Z,101341.19
2023-03-02T22:42:44.518Z,101339.81
2023-03-02T22:45:15.084Z,101332.95
2023-03-02T22:47:43.650Z,101325.68
2023-03-02T22:50:24.248Z,101323.13
2023-03-02T22:52:52.701Z,101313.34
2023-03-02T22:55:41.569Z,101311.55
2023-03-02T22:58:42.048Z,101299.33
2023-03-02T23:01:21.142Z,101295.00
2023-03-02T23:04:07.871Z,101288.61
2023-03-02T23:06:45.851Z,101285.63
2023-03-02T23:09:17.297Z,101292.74
2023-03-02T23:11:44.911Z,101289.95
2023-03-02T23:14:24.575Z,101290.09
2023-03-02T23:16:56.707Z,101284.59
2023-03-02T23:19:26.383Z,101282.11
2023-03-02T23:21:53.546Z,101290.86
2023-03-02T23:24:21.486Z,101288.27
2023-03-02T23:26:50.319Z,101291.48
2023-03-02T23:29:18.807Z,101299.46
2023-03-02T23:31:45.933Z,101298.23
2023-03-02T23:34:13.321Z,101291.21
2023-03-02T23:36:41.228Z,101294.80
2023-03-02T23:39:09.148Z,101296.77
2023-03-02T23:41:38.040Z,101292.20
2023-03-02T23:44:06.243Z,101289.55
2023-03-02T23:46:33.113Z,101298.21
2023-03-02T23:49:00.165Z,101302.98
2023-03-02T23:51:27.390Z,101295.46
2023-03-02T23:53:54.474Z,101294.58
2023-03-02T23:56:21.706Z,101290.42
2023-03-02T23:58:48.920Z,101287.95
